Harpster, Ohio
Current Conditions -  °F | °C
As of 9:53 AM on Wednesday 22 Oct 2014 (Local Time) from KMNN Reporting Station
Overcast Overcast  
Wind Chill: 40°   Ceiling: 2300
Heat Index: 46°   Visibility: 9mi
Dew Point: 42°   Wind: 14mph
Humidity: 86%   Direction: 10°N
Pressure: 30.28"   Gusts: NA
Location:  40.74°N, 83.25°W
Report Text: KMNN 221353Z AUTO 01012KT 9SM FEW013 OVC023 08/06 A3028 RMK AO2 SLP259 T00780056 TSNO
Loading
Personal Weather Stations






























Interactive Weather Map
Tropical Storm Tracking
New forecast layout! Learn more

10-Day Weather Forecast

Advertisements
Track Severe Weather on mobile